Mann, Pennsylvania
Current Conditions -  °F | °C
As of 9:33 PM on Thursday 20 Nov 2014 (Local Time) from KCBE Reporting Station
Clear Clear  
Wind Chill: 24°   Ceiling: Unl
Heat Index: 32°   Visibility: 10mi
Dew Point: 12°   Wind: 9mph
Humidity: 44%   Direction: 290°WNW
Pressure: 30.13"   Gusts: 23mph
Location:  39.7658°N, 78.4047°W
Report Text: KCBE 210233Z AUTO 29008G20KT 251V311 10SM CLR 00/M11 A3013 RMK AO1
Loading
Personal Weather Stations






























Interactive Weather Map New forecast layout! Learn more

10-Day Weather Forecast

Advertisements
Track Severe Weather on mobile